Terminal Aerodrome Forecast
Issued by NWS Paducah, KY

Home | Current Version | Previous Version | Text Only | Print | Product List | Glossary On
Versions: 1 2 3 4 5 6 7 8 9 10 11 12 13 14 15 16 17 18
000
FTUS43 KPAH 232100 AAA
TAFEVV
TAF AMD
KEVV 232102Z 2321/2418 34004KT P6SM OVC050
     FM232200 VRB04KT 5SM -RA BR OVC018
      TEMPO 2323/2401 2SM -RA BR BKN006
     FM240100 36007KT 3SM -RA BR OVC008
     FM240800 34009KT 4SM -RA BR OVC005
     FM241500 27013KT 5SM BR OVC010=

USA.gov is the U.S. government's official web portal to all federal, state and local government web resources and services.